createdAt,value
2018-05-31T00:03:13.663Z,20.47
2018-05-31T00:07:16.232Z,20.07
2018-05-31T00:11:18.774Z,24.03
2018-05-31T00:15:21.303Z,20.67
2018-05-31T00:19:23.861Z,20.03
2018-05-31T00:23:27.170Z,24.93
2018-05-31T00:27:29.718Z,21.23
2018-05-31T00:31:32.263Z,19.23
2018-05-31T00:35:34.809Z,20.03
2018-05-31T00:39:37.335Z,22.97
2018-05-31T00:43:39.918Z,20.07
2018-05-31T00:47:42.458Z,22.90
2018-05-31T00:51:45.003Z,21.13
2018-05-31T00:55:59.372Z,20.23
2018-05-31T01:00:01.926Z,19.27
2018-05-31T01:04:05.922Z,19.90
2018-05-31T01:08:08.460Z,21.63
2018-05-31T01:12:11.012Z,20.20
2018-05-31T01:16:14.320Z,20.43
2018-05-31T01:20:16.858Z,21.77
2018-05-31T01:24:19.404Z,19.70
2018-05-31T01:28:21.945Z,22.30
2018-05-31T01:32:25.268Z,19.93
2018-05-31T01:36:27.827Z,18.63
2018-05-31T01:40:31.142Z,19.50
2018-05-31T01:44:33.695Z,19.80
2018-05-31T01:48:36.227Z,20.33
2018-05-31T01:52:39.559Z,23.67
2018-05-31T01:56:42.099Z,19.50
2018-05-31T02:00:45.397Z,19.13
2018-05-31T02:04:48.760Z,22.10
2018-05-31T02:08:51.298Z,20.10
2018-05-31T02:12:53.843Z,20.00
2018-05-31T02:16:56.391Z,20.97
2018-05-31T02:20:58.919Z,22.03
2018-05-31T02:25:01.461Z,21.03
2018-05-31T02:29:04.000Z,19.60
2018-05-31T02:33:06.550Z,23.30
2018-05-31T02:37:09.096Z,23.50
2018-05-31T02:41:12.397Z,20.60
2018-05-31T02:45:15.703Z,21.87
2018-05-31T02:49:19.016Z,18.50
2018-05-31T02:53:22.334Z,18.87
2018-05-31T02:57:24.870Z,19.67
2018-05-31T03:01:27.411Z,20.10
2018-05-31T03:05:29.967Z,21.20
2018-05-31T03:09:33.279Z,20.67
2018-05-31T03:13:35.827Z,21.43
2018-05-31T03:17:38.375Z,20.37
2018-05-31T03:21:40.912Z,22.60
2018-05-31T03:25:44.219Z,21.67
2018-05-31T03:29:46.754Z,23.33
2018-05-31T03:33:49.298Z,22.97
2018-05-31T03:37:52.607Z,25.40
2018-05-31T03:41:55.162Z,22.63
2018-05-31T03:45:57.686Z,19.40
2018-05-31T03:50:00.233Z,21.63
2018-05-31T03:54:02.793Z,24.80
2018-05-31T03:58:05.335Z,21.93
2018-05-31T04:02:07.883Z,24.27
2018-05-31T04:06:10.414Z,24.20
2018-05-31T04:10:13.030Z,23.17
2018-05-31T04:14:15.574Z,32.10
2018-05-31T04:18:19.059Z,26.30
2018-05-31T04:22:22.374Z,24.80
2018-05-31T04:26:25.671Z,26.20
2018-05-31T04:30:28.983Z,26.50
2018-05-31T04:34:32.301Z,26.90
2018-05-31T04:38:34.866Z,28.10
2018-05-31T04:42:38.189Z,26.63
2018-05-31T04:46:40.720Z,26.67
2018-05-31T04:50:43.271Z,26.97
2018-05-31T04:54:45.819Z,25.40
2018-05-31T04:58:49.122Z,26.87
2018-05-31T05:02:52.430Z,29.07
2018-05-31T05:06:55.727Z,26.10
2018-05-31T05:10:59.043Z,28.17
2018-05-31T05:15:02.356Z,26.20
2018-05-31T05:19:04.920Z,31.33
2018-05-31T05:23:08.234Z,25.10
2018-05-31T05:27:10.779Z,27.70
2018-05-31T05:31:13.325Z,27.37
2018-05-31T05:35:15.875Z,26.20
2018-05-31T05:39:19.186Z,27.23
2018-05-31T05:43:22.498Z,26.33
2018-05-31T05:47:25.028Z,25.83
2018-05-31T05:51:27.598Z,29.23
2018-05-31T05:55:30.914Z,27.50
2018-05-31T05:59:33.485Z,25.53
2018-05-31T06:03:36.027Z,25.40
2018-05-31T06:07:39.342Z,24.60
2018-05-31T06:11:42.021Z,28.30
2018-05-31T06:15:44.583Z,25.93
2018-05-31T06:19:47.132Z,26.10
2018-05-31T06:23:49.775Z,24.23
2018-05-31T06:27:53.100Z,22.70
2018-05-31T06:31:55.641Z,22.80
2018-05-31T06:35:58.195Z,26.17
2018-05-31T06:40:00.734Z,23.07
2018-05-31T06:44:03.283Z,20.83
2018-05-31T06:48:05.819Z,24.93
2018-05-31T06:52:09.128Z,22.30
2018-05-31T06:56:12.432Z,23.80
2018-05-31T07:00:15.759Z,27.60
2018-05-31T07:04:18.294Z,29.27
2018-05-31T07:08:25.700Z,22.13
2018-05-31T07:12:28.227Z,20.07
2018-05-31T07:16:30.766Z,21.23
2018-05-31T07:20:33.311Z,18.80
2018-05-31T07:24:36.619Z,17.50
2018-05-31T07:28:39.154Z,18.33
2018-05-31T07:32:42.431Z,18.43
2018-05-31T07:36:44.959Z,20.80
2018-05-31T07:40:47.502Z,19.17
2018-05-31T07:44:50.040Z,17.30
2018-05-31T07:48:52.574Z,17.37
2018-05-31T07:52:55.107Z,18.00
2018-05-31T07:56:57.659Z,17.07
2018-05-31T08:01:00.970Z,16.90
2018-05-31T08:05:04.423Z,18.63
2018-05-31T08:09:06.965Z,15.00
2018-05-31T08:13:10.251Z,15.33
2018-05-31T08:17:14.299Z,21.87
2018-05-31T08:21:16.883Z,24.83
2018-05-31T08:25:20.187Z,32.53
2018-05-31T08:29:23.483Z,19.57
2018-05-31T08:33:26.787Z,18.20
2018-05-31T08:37:30.138Z,13.17
2018-05-31T08:41:32.679Z,12.20
2018-05-31T08:45:35.232Z,13.20
2018-05-31T08:49:37.779Z,14.50
2018-05-31T08:53:41.083Z,13.93
2018-05-31T08:57:43.603Z,14.00
2018-05-31T09:01:46.143Z,16.83
2018-05-31T09:05:48.696Z,12.10
2018-05-31T09:09:52.008Z,12.50
2018-05-31T09:13:55.308Z,11.63
2018-05-31T09:17:58.594Z,13.73
2018-05-31T09:22:01.140Z,11.80
2018-05-31T09:26:03.683Z,12.27
2018-05-31T09:30:06.996Z,12.73
2018-05-31T09:34:09.541Z,12.63
2018-05-31T09:38:12.056Z,15.27
2018-05-31T09:42:14.599Z,17.47
2018-05-31T09:46:17.211Z,14.20
2018-05-31T09:50:20.528Z,13.33
2018-05-31T09:54:23.835Z,13.03
2018-05-31T09:58:27.123Z,12.17
2018-05-31T10:02:30.432Z,12.37
2018-05-31T10:06:34.221Z,14.17
2018-05-31T10:10:36.842Z,10.90
2018-05-31T10:14:39.384Z,11.47
2018-05-31T10:18:41.907Z,11.40
2018-05-31T10:22:45.208Z,11.88
2018-05-31T10:26:47.879Z,12.65
2018-05-31T10:30:50.407Z,10.73
2018-05-31T10:34:52.934Z,13.40
2018-05-31T10:38:55.442Z,9.98
2018-05-31T10:42:58.742Z,10.93
2018-05-31T10:47:02.044Z,9.90
2018-05-31T10:51:05.339Z,8.93
2018-05-31T10:55:07.870Z,8.27
2018-05-31T10:59:10.447Z,9.02
2018-05-31T11:03:13.820Z,11.00
2018-05-31T11:07:17.148Z,8.70
2018-05-31T11:11:19.676Z,8.27
2018-05-31T11:15:23.011Z,9.07
2018-05-31T11:19:26.316Z,8.27
2018-05-31T11:23:29.664Z,10.50
2018-05-31T11:27:32.271Z,9.13
2018-05-31T11:31:34.864Z,8.85
2018-05-31T11:35:37.394Z,8.85
2018-05-31T11:39:39.925Z,8.38
2018-05-31T11:43:42.443Z,7.47
2018-05-31T11:47:46.245Z,8.52
2018-05-31T11:51:48.827Z,11.27
2018-05-31T11:55:51.360Z,7.85
2018-05-31T11:59:53.887Z,5.53
2018-05-31T12:03:57.121Z,5.75
2018-05-31T12:07:59.663Z,11.15
2018-05-31T12:12:02.213Z,7.75
2018-05-31T12:16:04.744Z,6.45
2018-05-31T12:20:07.285Z,7.03
2018-05-31T12:24:09.799Z,9.18
2018-05-31T12:28:12.337Z,7.97
2018-05-31T12:32:15.670Z,8.50
2018-05-31T12:36:18.195Z,11.10
2018-05-31T12:40:20.727Z,6.97
2018-05-31T12:44:23.255Z,7.50
2018-05-31T12:48:25.783Z,8.02
2018-05-31T12:52:29.084Z,7.10
2018-05-31T12:56:32.387Z,12.40
2018-05-31T13:00:34.911Z,6.53
2018-05-31T13:04:37.419Z,5.68
2018-05-31T13:08:39.950Z,9.60
2018-05-31T13:12:42.487Z,6.87
2018-05-31T13:16:45.019Z,8.60
2018-05-31T13:20:47.562Z,10.23
2018-05-31T13:24:50.087Z,6.35
2018-05-31T13:28:52.619Z,8.93
2018-05-31T13:32:55.163Z,7.40
2018-05-31T13:36:57.689Z,7.37
2018-05-31T13:41:00.233Z,12.00
2018-05-31T13:45:02.763Z,7.80
2018-05-31T13:49:05.289Z,8.25
2018-05-31T13:53:08.591Z,9.05
2018-05-31T13:57:11.128Z,8.00
2018-05-31T14:01:13.655Z,8.15
2018-05-31T14:05:16.946Z,7.55
2018-05-31T14:09:20.229Z,8.43
2018-05-31T14:13:22.756Z,9.68
2018-05-31T14:17:25.284Z,8.05
2018-05-31T14:21:27.829Z,7.05
2018-05-31T14:25:30.364Z,9.13
2018-05-31T14:29:32.890Z,8.88
2018-05-31T14:33:35.420Z,7.40
2018-05-31T14:37:37.972Z,5.60
2018-05-31T14:41:40.499Z,6.95
2018-05-31T14:45:43.024Z,6.30
2018-05-31T14:49:46.297Z,6.95
2018-05-31T14:53:48.837Z,7.12
2018-05-31T14:57:51.364Z,6.55
2018-05-31T15:01:53.911Z,6.00
2018-05-31T15:05:56.447Z,6.78
2018-05-31T15:09:58.955Z,6.72
2018-05-31T15:14:02.255Z,6.78
2018-05-31T15:18:04.803Z,6.12
2018-05-31T15:22:07.347Z,6.87
2018-05-31T15:26:09.896Z,7.68
2018-05-31T15:30:13.173Z,6.93
2018-05-31T15:34:15.751Z,7.87
2018-05-31T15:38:18.259Z,7.35
2018-05-31T15:42:21.571Z,8.77
2018-05-31T15:46:24.872Z,10.35
2018-05-31T15:50:28.144Z,8.18
2018-05-31T15:54:30.675Z,9.80
2018-05-31T15:58:33.975Z,6.12
2018-05-31T16:02:37.277Z,7.40
2018-05-31T16:06:40.573Z,6.40
2018-05-31T16:10:43.879Z,8.00
2018-05-31T16:14:47.157Z,7.18
2018-05-31T16:18:49.698Z,6.68
2018-05-31T16:22:52.249Z,7.80
2018-05-31T16:26:55.542Z,6.82
2018-05-31T16:30:58.838Z,6.95
2018-05-31T16:35:01.390Z,7.07
2018-05-31T16:39:03.903Z,7.12
2018-05-31T16:43:06.438Z,7.97
2018-05-31T16:47:08.976Z,7.95
2018-05-31T16:51:11.505Z,7.30
2018-05-31T16:55:14.025Z,7.53
2018-05-31T16:59:16.575Z,8.15
2018-05-31T17:03:19.105Z,7.30
2018-05-31T17:07:21.640Z,7.90
2018-05-31T17:11:24.171Z,8.68
2018-05-31T17:15:26.687Z,10.82
2018-05-31T17:19:29.983Z,8.13
2018-05-31T17:23:33.296Z,11.07
2018-05-31T17:27:36.611Z,8.30
2018-05-31T17:31:39.136Z,9.30
2018-05-31T17:35:41.645Z,10.32
2018-05-31T17:39:44.967Z,9.98
2018-05-31T17:43:48.279Z,11.73
2018-05-31T17:47:51.583Z,11.93
2018-05-31T17:51:54.884Z,13.07
2018-05-31T17:55:57.410Z,14.35
2018-05-31T17:59:59.940Z,14.43
2018-05-31T18:04:03.243Z,11.88
2018-05-31T18:08:06.539Z,20.02
2018-05-31T18:12:09.069Z,11.43
2018-05-31T18:16:11.582Z,11.50
2018-05-31T18:20:14.121Z,18.60
2018-05-31T18:24:16.662Z,13.57
2018-05-31T18:28:19.215Z,11.10
2018-05-31T18:32:21.747Z,12.40
2018-05-31T18:36:24.263Z,16.17
2018-05-31T18:40:26.810Z,13.97
2018-05-31T18:44:29.342Z,17.53
2018-05-31T18:48:32.639Z,15.10
2018-05-31T18:52:35.179Z,18.77
2018-05-31T18:56:37.715Z,17.13
2018-05-31T19:00:40.234Z,15.43
2018-05-31T19:04:43.327Z,16.17
2018-05-31T19:08:45.867Z,18.90
2018-05-31T19:12:53.963Z,16.37
2018-05-31T19:16:57.272Z,16.63
2018-05-31T19:21:00.738Z,16.30
2018-05-31T19:25:08.899Z,18.57
2018-05-31T19:29:11.435Z,17.23
2018-05-31T19:33:14.078Z,17.37
2018-05-31T19:37:16.616Z,16.80
2018-05-31T19:41:24.928Z,17.80
2018-05-31T19:45:27.483Z,16.47
2018-05-31T19:49:30.030Z,16.90
2018-05-31T19:53:38.334Z,16.73
2018-05-31T19:57:47.471Z,18.17
2018-05-31T20:01:55.748Z,21.50
2018-05-31T20:05:58.280Z,18.77
2018-05-31T20:10:01.620Z,18.17
2018-05-31T20:14:04.156Z,18.63
2018-05-31T20:18:06.697Z,20.00
2018-05-31T20:22:09.212Z,19.63
2018-05-31T20:26:11.756Z,18.90
2018-05-31T20:30:14.303Z,19.50
2018-05-31T20:34:17.603Z,19.13
2018-05-31T20:38:20.911Z,20.80
2018-05-31T20:42:24.505Z,20.33
2018-05-31T20:46:27.850Z,19.87
2018-05-31T20:50:30.450Z,21.87
2018-05-31T20:54:32.986Z,22.30
2018-05-31T20:58:35.521Z,20.60
2018-05-31T21:02:38.051Z,19.83
2018-05-31T21:06:40.571Z,19.93
2018-05-31T21:10:43.106Z,18.93
2018-05-31T21:14:45.656Z,21.67
2018-05-31T21:18:48.199Z,19.43
2018-05-31T21:22:51.505Z,19.23
2018-05-31T21:26:54.791Z,21.03
2018-05-31T21:30:57.332Z,21.83
2018-05-31T21:34:59.870Z,20.23
2018-05-31T21:39:02.412Z,19.87
2018-05-31T21:43:04.956Z,20.43
2018-05-31T21:47:08.240Z,19.80
2018-05-31T21:51:10.770Z,19.90
2018-05-31T21:55:13.304Z,19.83
2018-05-31T21:59:15.840Z,20.17
2018-05-31T22:03:18.370Z,20.07
2018-05-31T22:07:20.891Z,21.03
2018-05-31T22:11:23.423Z,20.33
2018-05-31T22:15:25.976Z,21.23
2018-05-31T22:19:28.523Z,20.77
2018-05-31T22:23:31.064Z,22.57
2018-05-31T22:27:33.587Z,24.30
2018-05-31T22:31:36.119Z,21.67
2018-05-31T22:35:39.422Z,22.53
2018-05-31T22:39:41.977Z,22.20
2018-05-31T22:43:45.300Z,23.70
2018-05-31T22:47:47.816Z,23.13
2018-05-31T22:51:50.350Z,24.53
2018-05-31T22:55:53.650Z,23.57
2018-05-31T22:59:56.952Z,24.03
2018-05-31T23:04:00.259Z,23.70
2018-05-31T23:08:03.541Z,22.70
2018-05-31T23:12:06.092Z,22.07
2018-05-31T23:16:08.633Z,23.93
2018-05-31T23:20:11.952Z,23.03
2018-05-31T23:24:14.518Z,21.60
2018-05-31T23:28:17.820Z,23.23
2018-05-31T23:32:21.109Z,24.27
2018-05-31T23:36:23.644Z,22.37
2018-05-31T23:40:26.178Z,23.20
2018-05-31T23:44:28.715Z,25.50
2018-05-31T23:48:31.247Z,23.47
2018-05-31T23:52:33.766Z,25.60
2018-05-31T23:56:36.304Z,25.93
